Aérodrome :
LOGIN :

S'inscrire | Disclaimer

   EN    FR    IT 

 










Légende :    VFR   VFR Marginal   IFR   IFR Intensif   IFR Très Intensif
Visi : 
Plafond : 
>= 8 km
>= 3000ft
5 à 8 km
1000 à 3000 ft
1500m à 5 km
500 à 1000 ft
800 à 1500m
200 à 500 ft
< 800m
< 200 ft
Symboles :   Orages  Brouillard  Fortes neiges  Fortes précipitations  Vent > 20 kt
SIGMETs :   Divers  Orages  Givrage  Turbulence  Onde Orograph.  Cendres Volcan.







- Altitude de l'aérodrome : 162 ft
- Code IATA : BOD
- Voir les cartes d'approche


LFBD - Bordeaux / Merignac

DERNIER METAR :
  • 170830Z AUTO 02004KT 360V060 9999 OVC031 15/13 Q1018 NOSIG

METARs EXPIRÉS :
  • 170800Z AUTO 04004KT 020V080 9999 OVC033 14/12 Q1018 TEMPO BKN006
  • 170730Z AUTO 04005KT 9999 SCT023 BKN036 OVC066 14/12 Q1018 TEMPO BKN006
  • 170700Z AUTO 03003KT 010V080 9999 SCT021 OVC066 14/12 Q1018 TEMPO BKN006
  • 170630Z AUTO 03004KT 9999 SCT044 OVC064 14/12 Q1018 TEMPO BKN006

TAF AMD TAF LFBD
Valide du 17 à 07h jusqu'au 18 à 12h UTC


170750Z 1707/1812 03005KT 9999 BKN040 TX21/1714Z TN14/1707Z
PROB30
TEMPO 1707/1710 BKN015
TEMPO 1800/1807 3000 BR
ATIS : +33 5 57 92 81 04
Pas de NOTAMs connus pour ce terrain.



MET'MAP, la Météo Aéronautique d'un coup d'oeil ! - Copyright ORBIFLY Décembre 2007 - Disclaimer

ORBIFLY MET'MAP TEAM :

Programmation & Développement : Alexandra Zaïnal
Conception & Développement : Baudouin d'Aumeries
Co-Programmation & Développement : Marc-Olivier Méhu
Soutien technique & logistique : Manuel Goepfert

Contact : metmap@orbifly.com




SOURCES & CREDITS :

   NOAA